Time;durP1;ratioP1;P1;durP2;ratioP2;P2;SDS_P1;SDS_P2;PMS_P1;PMS_P2;Temp;Humidity;BMP_temperature;BMP_pressure;BME280_temperature;BME280_humidity;BME280_pressure;Samples;Min_cycle;Max_cycle;Signal;HPM_P1;HPM_P2
2022/11/29 00:05:03;;;;;;;;;;;;;;;;;;10457437;28;20023;-68
2022/11/29 00:10:06;;;;;;;;;;;;;;;;;;10431108;28;19925;-68
2022/11/29 00:15:08;;;;;;;;;;;;;;;;;;10418266;28;19975;-68
2022/11/29 00:20:10;;;;;;;;;;;;;;;;;;10417229;28;19925;-68
2022/11/29 00:25:12;;;;;;;;;;;;;;;;;;10416102;28;20447;-68
2022/11/29 00:30:14;;;;;;;;;;;;;;;;;;10445662;28;19925;-68
2022/11/29 00:35:16;;;;;;;;;;;;;;;;;;10458015;28;19947;-68
2022/11/29 00:40:18;;;;;;;;;;;;;;;;;;10457496;28;19929;-68
2022/11/29 00:45:20;;;;;;;;;;;;;;;;;;10424038;28;19926;-68
2022/11/29 00:50:22;;;;;;;;;;;;;;;;;;10420072;28;19929;-68
2022/11/29 00:55:24;;;;;;;;;;;;;;;;;;10457843;28;19931;-68
2022/11/29 01:00:27;;;;;;;;;;;;;;;;;;10457067;28;19925;-68
2022/11/29 01:05:29;;;;;;;;;;;;;;;;;;10421142;28;19975;-68
2022/11/29 01:10:31;;;;;;;;;;;;;;;;;;10415761;28;20372;-68
2022/11/29 01:15:33;;;;;;;;;;;;;;;;;;10416170;28;19925;-68
2022/11/29 01:20:35;;;;;;;;;;;;;;;;;;10449991;28;19979;-68
2022/11/29 01:25:37;;;;;;;;;;;;;;;;;;10457265;28;19928;-68
2022/11/29 01:30:39;;;;;;;;;;;;;;;;;;10455722;28;19979;-68
2022/11/29 01:35:42;;;;;;;;;;;;;;;;;;10454907;28;20003;-69
2022/11/29 01:40:44;;;;;;;;;;;;;;;;;;10455082;28;19947;-69
2022/11/29 01:45:46;;;;;;;;;;;;;;;;;;10456882;28;19929;-68
2022/11/29 01:50:48;;;;;;;;;;;;;;;;;;10437724;28;19925;-68
2022/11/29 01:55:50;;;;;;;;;;;;;;;;;;10423068;28;19925;-68
2022/11/29 02:00:52;;;;;;;;;;;;;;;;;;10423226;28;19929;-68
2022/11/29 02:05:54;;;;;;;;;;;;;;;;;;10421559;28;19932;-68
2022/11/29 02:10:56;;;;;;;;;;;;;;;;;;10421425;28;19925;-68
2022/11/29 02:15:58;;;;;;;;;;;;;;;;;;10422793;28;19991;-68
2022/11/29 02:21:00;;;;;;;;;;;;;;;;;;10439861;28;19964;-68
2022/11/29 02:26:02;;;;;;;;;;;;;;;;;;10452067;28;19925;-68
2022/11/29 02:31:05;;;;;;;;;;;;;;;;;;10462240;28;19979;-68
2022/11/29 02:36:07;;;;;;;;;;;;;;;;;;10463183;28;19925;-68
2022/11/29 02:41:09;;;;;;;;;;;;;;;;;;10459923;28;19929;-68
2022/11/29 02:46:11;;;;;;;;;;;;;;;;;;10462737;28;19979;-68
2022/11/29 02:51:13;;;;;;;;;;;;;;;;;;10460731;28;19931;-68
2022/11/29 02:56:15;;;;;;;;;;;;;;;;;;10462443;28;19925;-68
2022/11/29 03:01:17;;;;;;;;;;;;;;;;;;10432893;28;19925;-68
2022/11/29 03:06:19;;;;;;;;;;;;;;;;;;10419360;28;19951;-68
2022/11/29 03:11:21;;;;;;;;;;;;;;;;;;10420644;28;19925;-68
2022/11/29 03:16:23;;;;;;;;;;;;;;;;;;10446527;28;19928;-68
2022/11/29 03:21:25;;;;;;;;;;;;;;;;;;10457171;28;20261;-68
2022/11/29 03:26:27;;;;;;;;;;;;;;;;;;10461472;28;19924;-68
2022/11/29 03:31:29;;;;;;;;;;;;;;;;;;10458835;28;19929;-68
2022/11/29 03:36:32;;;;;;;;;;;;;;;;;;10423932;28;19925;-68
2022/11/29 03:41:34;;;;;;;;;;;;;;;;;;10459568;28;19931;-69
2022/11/29 03:46:36;;;;;;;;;;;;;;;;;;10459819;28;20284;-68
2022/11/29 03:51:38;;;;;;;;;;;;;;;;;;10459585;28;19979;-68
2022/11/29 03:56:40;;;;;;;;;;;;;;;;;;10437693;28;20399;-68
2022/11/29 04:01:42;;;;;;;;;;;;;;;;;;10457941;28;20375;-68
2022/11/29 04:06:44;;;;;;;;;;;;;;;;;;10459064;28;20364;-68
2022/11/29 04:11:57;;;;;;;;;;;;;;;;;;10459432;28;19925;-68
2022/11/29 04:16:59;;;;;;;;;;;;;;;;;;10435338;28;19929;-68
2022/11/29 04:22:01;;;;;;;;;;;;;;;;;;10417812;28;19975;-68
2022/11/29 04:27:03;;;;;;;;;;;;;;;;;;10417684;28;19925;-68
2022/11/29 04:32:05;;;;;;;;;;;;;;;;;;10449942;28;19932;-68
2022/11/29 04:37:07;;;;;;;;;;;;;;;;;;10457904;28;19948;-68
2022/11/29 04:42:09;;;;;;;;;;;;;;;;;;10457086;28;19933;-68
2022/11/29 04:47:11;;;;;;;;;;;;;;;;;;10457557;28;19925;-68
2022/11/29 04:52:13;;;;;;;;;;;;;;;;;;10454130;28;19931;-68
2022/11/29 04:57:16;;;;;;;;;;;;;;;;;;10457839;28;19974;-68
2022/11/29 05:02:18;;;;;;;;;;;;;;;;;;10457116;28;20360;-68
2022/11/29 05:07:20;;;;;;;;;;;;;;;;;;10455348;28;19982;-68
2022/11/29 05:12:22;;;;;;;;;;;;;;;;;;10455821;28;19925;-68
2022/11/29 05:17:25;;;;;;;;;;;;;;;;;;10430464;28;19925;-68
2022/11/29 05:22:27;;;;;;;;;;;;;;;;;;10415431;28;19975;-68
2022/11/29 05:27:29;;;;;;;;;;;;;;;;;;10418774;28;19925;-68
2022/11/29 05:32:31;;;;;;;;;;;;;;;;;;10444080;28;20330;-68
2022/11/29 05:37:33;;;;;;;;;;;;;;;;;;10464856;28;19986;-68
2022/11/29 05:42:36;;;;;;;;;;;;;;;;;;10465350;28;19925;-68
2022/11/29 05:47:38;;;;;;;;;;;;;;;;;;10462437;28;19925;-68
2022/11/29 05:52:40;;;;;;;;;;;;;;;;;;10463006;28;19933;-68
2022/11/29 05:57:42;;;;;;;;;;;;;;;;;;10463976;28;19990;-68
2022/11/29 06:02:44;;;;;;;;;;;;;;;;;;10464515;28;19925;-68
2022/11/29 06:07:47;;;;;;;;;;;;;;;;;;10462123;28;19932;-68
2022/11/29 06:12:49;;;;;;;;;;;;;;;;;;10462371;28;19928;-68
2022/11/29 06:17:51;;;;;;;;;;;;;;;;;;10461274;28;20406;-68
2022/11/29 06:22:54;;;;;;;;;;;;;;;;;;10463740;28;19924;-68
2022/11/29 06:27:56;;;;;;;;;;;;;;;;;;10462923;28;20330;-68
2022/11/29 06:33:00;;;;;;;;;;;;;;;;;;10460523;28;19925;-68
2022/11/29 06:38:02;;;;;;;;;;;;;;;;;;10461140;28;19932;-68
2022/11/29 06:43:04;;;;;;;;;;;;;;;;;;10450567;28;19978;-68
2022/11/29 06:48:06;;;;;;;;;;;;;;;;;;10420626;28;19926;-68
2022/11/29 06:53:08;;;;;;;;;;;;;;;;;;10461927;28;20372;-68
2022/11/29 06:58:11;;;;;;;;;;;;;;;;;;10461731;28;19929;-68
2022/11/29 07:03:13;;;;;;;;;;;;;;;;;;10457192;28;20472;-68
2022/11/29 07:08:15;;;;;;;;;;;;;;;;;;10448829;28;19925;-68
2022/11/29 07:13:17;;;;;;;;;;;;;;;;;;10461204;28;20364;-68
2022/11/29 07:18:19;;;;;;;;;;;;;;;;;;10460933;28;19925;-68
2022/11/29 07:23:21;;;;;;;;;;;;;;;;;;10452516;28;19924;-68
2022/11/29 07:28:23;;;;;;;;;;;;;;;;;;10457393;28;20265;-68
2022/11/29 07:33:25;;;;;;;;;;;;;;;;;;10452999;28;19924;-68
2022/11/29 07:38:29;;;;;;;;;;;;;;;;;;10418971;28;19933;-68
2022/11/29 07:43:31;;;;;;;;;;;;;;;;;;10439573;28;19932;-68
2022/11/29 07:48:34;;;;;;;;;;;;;;;;;;10440576;28;20066;-68
2022/11/29 07:53:36;;;;;;;;;;;;;;;;;;10421238;28;19929;-68
2022/11/29 07:58:38;;;;;;;;;;;;;;;;;;10457877;28;19924;-68
2022/11/29 08:03:40;;;;;;;;;;;;;;;;;;10456901;22;19956;-62
2022/11/29 08:08:42;;;;;;;;;;;;;;;;;;10418562;28;19932;-62
2022/11/29 08:13:45;;;;;;;;;;;;;;;;;;10418405;28;19932;-61
2022/11/29 08:18:47;;;;;;;;;;;;;;;;;;10416487;28;20371;-61
2022/11/29 08:23:50;;;;;;;;;;;;;;;;;;10417950;28;19925;-61
2022/11/29 08:28:52;;;;;;;;;;;;;;;;;;10417137;28;19933;-61
2022/11/29 08:33:54;;;;;;;;;;;;;;;;;;10415983;28;20389;-61
2022/11/29 08:38:56;;;;;;;;;;;;;;;;;;10423600;28;19925;-61
2022/11/29 08:44:06;;;;;;;;;;;;;;;;;;10418839;28;19925;-61
2022/11/29 08:49:08;;;;;;;;;;;;;;;;;;10440581;28;19937;-62
2022/11/29 08:54:11;;;;;;;;;;;;;;;;;;10416887;28;19932;-61
2022/11/29 08:59:13;;;;;;;;;;;;;;;;;;10416817;28;19979;-61
2022/11/29 09:04:15;;;;;;;;;;;;;;;;;;10415462;28;19925;-61
2022/11/29 09:09:18;;;;;;;;;;;;;;;;;;10416526;28;19932;-61
2022/11/29 09:14:21;;;;;;;;;;;;;;;;;;10415943;28;20283;-61
2022/11/29 09:19:23;;;;;;;;;;;;;;;;;;10415780;28;19925;-62
2022/11/29 09:24:25;;;;;;;;;;;;;;;;;;10430937;28;19929;-62
2022/11/29 09:29:27;;;;;;;;;;;;;;;;;;10416108;28;19925;-61
2022/11/29 09:34:30;;;;;;;;;;;;;;;;;;10416055;28;19925;-62
2022/11/29 09:39:32;;;;;;;;;;;;;;;;;;10415828;28;19932;-61
2022/11/29 09:44:34;;;;;;;;;;;;;;;;;;10415176;28;19925;-61
2022/11/29 09:49:36;;;;;;;;;;;;;;;;;;10415705;28;19941;-61
2022/11/29 09:54:38;;;;;;;;;;;;;;;;;;10415024;28;19951;-61
2022/11/29 09:59:41;;;;;;;;;;;;;;;;;;10415466;28;19925;-61
2022/11/29 10:04:43;;;;;;;;;;;;;;;;;;10415009;28;19925;-61
2022/11/29 10:09:46;;;;;;;;;;;;;;;;;;10415375;28;20008;-61
2022/11/29 10:14:48;;;;;;;;;;;;;;;;;;10420554;28;19952;-61
2022/11/29 10:19:50;;;;;;;;;;;;;;;;;;10422802;28;19972;-61
2022/11/29 10:24:52;;;;;;;;;;;;;;;;;;10422039;28;19929;-62
2022/11/29 10:29:54;;;;;;;;;;;;;;;;;;10423965;28;20378;-62
2022/11/29 10:34:59;;;;;;;;;;;;;;;;;;10421647;28;20287;-61
2022/11/29 10:40:03;;;;;;;;;;;;;;;;;;10422001;28;19932;-61
2022/11/29 10:45:05;;;;;;;;;;;;;;;;;;10421800;28;19925;-61
2022/11/29 10:50:07;;;;;;;;;;;;;;;;;;10421695;28;19924;-61
2022/11/29 10:55:09;;;;;;;;;;;;;;;;;;10420797;28;19928;-61
2022/11/29 11:00:11;;;;;;;;;;;;;;;;;;10421241;28;19975;-61
2022/11/29 11:05:18;;;;;;;;;;;;;;;;;;10420417;28;19932;-61
2022/11/29 11:10:20;;;;;;;;;;;;;;;;;;10420417;28;20012;-61
2022/11/29 11:15:22;;;;;;;;;;;;;;;;;;10420031;28;19925;-62
2022/11/29 11:20:24;;;;;;;;;;;;;;;;;;10420438;28;19933;-61
2022/11/29 11:25:26;;;;;;;;;;;;;;;;;;10419502;28;19925;-61
2022/11/29 11:30:28;;;;;;;;;;;;;;;;;;10419521;28;19986;-62
2022/11/29 11:35:31;;;;;;;;;;;;;;;;;;10419265;28;20387;-61
2022/11/29 11:40:33;;;;;;;;;;;;;;;;;;10419644;28;19940;-62
2022/11/29 11:45:35;;;;;;;;;;;;;;;;;;10418772;28;19925;-62
2022/11/29 11:50:37;;;;;;;;;;;;;;;;;;10418667;28;19933;-62
2022/11/29 11:55:39;;;;;;;;;;;;;;;;;;10417095;28;19980;-62
2022/11/29 12:00:42;;;;;;;;;;;;;;;;;;10415009;28;19948;-62
2022/11/29 12:06:04;;;;;;;;;;;;;;;;;;10415832;28;20008;-62
2022/11/29 12:11:06;;;;;;;;;;;;;;;;;;10418344;28;19925;-62
2022/11/29 12:16:08;;;;;;;;;;;;;;;;;;10418421;28;19972;-62
2022/11/29 12:21:10;;;;;;;;;;;;;;;;;;10418068;28;19925;-62
2022/11/29 12:26:12;;;;;;;;;;;;;;;;;;10417969;28;19925;-62
2022/11/29 12:31:34;;;;;;;;;;;;;;;;;;10415739;28;19929;-62
2022/11/29 12:36:36;;;;;;;;;;;;;;;;;;10417032;28;19929;-62
2022/11/29 12:41:38;;;;;;;;;;;;;;;;;;10417341;28;19929;-62
2022/11/29 12:46:41;;;;;;;;;;;;;;;;;;10417414;28;19929;-63
2022/11/29 12:51:43;;;;;;;;;;;;;;;;;;10417089;28;19925;-62
2022/11/29 12:56:45;;;;;;;;;;;;;;;;;;10416908;28;19925;-62
2022/11/29 13:01:47;;;;;;;;;;;;;;;;;;10416752;28;19940;-62
2022/11/29 13:06:49;;;;;;;;;;;;;;;;;;10415996;28;19946;-62
2022/11/29 13:11:51;;;;;;;;;;;;;;;;;;10415945;28;20334;-62
2022/11/29 13:16:55;;;;;;;;;;;;;;;;;;10416359;28;19925;-62
2022/11/29 13:21:57;;;;;;;;;;;;;;;;;;10415599;28;19925;-62
2022/11/29 13:26:59;;;;;;;;;;;;;;;;;;10416125;28;19984;-62
2022/11/29 13:32:01;;;;;;;;;;;;;;;;;;10415405;28;20368;-62
2022/11/29 13:37:03;;;;;;;;;;;;;;;;;;10415476;28;19925;-62
2022/11/29 13:42:05;;;;;;;;;;;;;;;;;;10415194;28;19929;-62
2022/11/29 13:47:07;;;;;;;;;;;;;;;;;;10416936;28;19929;-62
2022/11/29 13:52:09;;;;;;;;;;;;;;;;;;10423270;28;19975;-62
2022/11/29 13:57:12;;;;;;;;;;;;;;;;;;10423737;28;19932;-62
2022/11/29 14:02:14;;;;;;;;;;;;;;;;;;10422641;28;19983;-62
2022/11/29 14:07:18;;;;;;;;;;;;;;;;;;10423396;28;19925;-62
2022/11/29 14:12:20;;;;;;;;;;;;;;;;;;10423207;28;19929;-62
2022/11/29 14:17:22;;;;;;;;;;;;;;;;;;10422449;28;19925;-62
2022/11/29 14:22:24;;;;;;;;;;;;;;;;;;10422679;28;20011;-63
2022/11/29 14:27:26;;;;;;;;;;;;;;;;;;10422113;28;20338;-63
2022/11/29 14:32:28;;;;;;;;;;;;;;;;;;10422374;28;19979;-62
2022/11/29 14:37:30;;;;;;;;;;;;;;;;;;10421773;28;19933;-62
2022/11/29 14:42:32;;;;;;;;;;;;;;;;;;10421338;28;19925;-62
2022/11/29 14:47:35;;;;;;;;;;;;;;;;;;10421970;28;19956;-62
2022/11/29 14:52:37;;;;;;;;;;;;;;;;;;10421746;28;19925;-62
2022/11/29 14:57:39;;;;;;;;;;;;;;;;;;10421462;28;20113;-62
2022/11/29 15:02:42;;;;;;;;;;;;;;;;;;10419299;28;19932;-62
2022/11/29 15:07:44;;;;;;;;;;;;;;;;;;10420320;28;20260;-62
2022/11/29 15:12:46;;;;;;;;;;;;;;;;;;10420170;28;19925;-62
2022/11/29 15:17:48;;;;;;;;;;;;;;;;;;10420689;28;19929;-62
2022/11/29 15:22:51;;;;;;;;;;;;;;;;;;10419668;28;19929;-62
2022/11/29 15:27:53;;;;;;;;;;;;;;;;;;10420310;28;19932;-62
2022/11/29 15:32:55;;;;;;;;;;;;;;;;;;10420060;28;19925;-62
2022/11/29 15:37:57;;;;;;;;;;;;;;;;;;10419217;28;19925;-62
2022/11/29 15:43:00;;;;;;;;;;;;;;;;;;10419037;28;20007;-62
2022/11/29 15:48:02;;;;;;;;;;;;;;;;;;10418933;28;19926;-62
2022/11/29 15:53:04;;;;;;;;;;;;;;;;;;10419262;28;19929;-62
2022/11/29 15:58:06;;;;;;;;;;;;;;;;;;10417070;28;20368;-62
2022/11/29 16:03:10;;;;;;;;;;;;;;;;;;10418394;28;19929;-62
2022/11/29 16:08:12;;;;;;;;;;;;;;;;;;10417846;28;19929;-62
2022/11/29 16:13:15;;;;;;;;;;;;;;;;;;10419096;28;19932;-62
2022/11/29 16:18:17;;;;;;;;;;;;;;;;;;10417787;28;20359;-62
2022/11/29 16:23:19;;;;;;;;;;;;;;;;;;10433293;28;19970;-62
2022/11/29 16:28:21;;;;;;;;;;;;;;;;;;10449784;28;19925;-62
2022/11/29 16:33:23;;;;;;;;;;;;;;;;;;10458862;28;19970;-62
2022/11/29 16:38:25;;;;;;;;;;;;;;;;;;10458226;28;20268;-62
2022/11/29 16:43:27;;;;;;;;;;;;;;;;;;10454022;28;19925;-62
2022/11/29 16:48:29;;;;;;;;;;;;;;;;;;10445213;28;19925;-62
2022/11/29 16:53:31;;;;;;;;;;;;;;;;;;10416365;28;20426;-62
2022/11/29 16:58:33;;;;;;;;;;;;;;;;;;10416890;28;19932;-62
2022/11/29 17:03:39;;;;;;;;;;;;;;;;;;10414878;28;20380;-62
2022/11/29 17:08:41;;;;;;;;;;;;;;;;;;10429818;28;19925;-62
2022/11/29 17:13:43;;;;;;;;;;;;;;;;;;10456907;28;20294;-62
2022/11/29 17:18:45;;;;;;;;;;;;;;;;;;10457577;28;19928;-62
2022/11/29 17:23:47;;;;;;;;;;;;;;;;;;10417207;28;19924;-62
2022/11/29 17:28:49;;;;;;;;;;;;;;;;;;10433635;28;20346;-62
2022/11/29 17:33:52;;;;;;;;;;;;;;;;;;10416079;28;19933;-62
2022/11/29 17:38:54;;;;;;;;;;;;;;;;;;10416667;28;20376;-62
2022/11/29 17:43:56;;;;;;;;;;;;;;;;;;10417536;28;19926;-62
2022/11/29 17:48:58;;;;;;;;;;;;;;;;;;10414911;28;19926;-62
2022/11/29 17:54:01;;;;;;;;;;;;;;;;;;10413954;28;19936;-62
2022/11/29 17:59:03;;;;;;;;;;;;;;;;;;10415580;28;19925;-62
2022/11/29 18:04:07;;;;;;;;;;;;;;;;;;10414965;28;19925;-62
2022/11/29 18:09:09;;;;;;;;;;;;;;;;;;10414192;28;19932;-62
2022/11/29 18:14:11;;;;;;;;;;;;;;;;;;10415264;28;19925;-62
2022/11/29 18:19:13;;;;;;;;;;;;;;;;;;10415096;28;19980;-62
2022/11/29 18:24:15;;;;;;;;;;;;;;;;;;10443538;28;19924;-62
2022/11/29 18:29:17;;;;;;;;;;;;;;;;;;10453257;28;19947;-62
2022/11/29 18:34:19;;;;;;;;;;;;;;;;;;10458844;28;19925;-62
2022/11/29 18:39:23;;;;;;;;;;;;;;;;;;10462772;28;19925;-62
2022/11/29 18:44:28;;;;;;;;;;;;;;;;;;10427573;28;20368;-62
2022/11/29 18:49:30;;;;;;;;;;;;;;;;;;10421634;28;20000;-62
2022/11/29 18:54:32;;;;;;;;;;;;;;;;;;10421478;28;19933;-62
2022/11/29 18:59:34;;;;;;;;;;;;;;;;;;10430061;28;19951;-62
2022/11/29 19:04:36;;;;;;;;;;;;;;;;;;10421364;28;19925;-62
2022/11/29 19:09:38;;;;;;;;;;;;;;;;;;10419864;28;19925;-62
2022/11/29 19:14:40;;;;;;;;;;;;;;;;;;10418622;28;19929;-62
2022/11/29 19:19:49;;;;;;;;;;;;;;;;;;10418636;28;19929;-62
2022/11/29 19:24:54;;;;;;;;;;;;;;;;;;10419243;28;19929;-62
2022/11/29 19:29:56;;;;;;;;;;;;;;;;;;10418706;28;19995;-62
2022/11/29 19:34:58;;;;;;;;;;;;;;;;;;10418198;28;19933;-62
2022/11/29 19:40:00;;;;;;;;;;;;;;;;;;10416332;28;19978;-62
2022/11/29 19:45:02;;;;;;;;;;;;;;;;;;10417574;28;19925;-62
2022/11/29 19:50:18;;;;;;;;;;;;;;;;;;10397989;28;19976;-62
2022/11/29 19:55:20;;;;;;;;;;;;;;;;;;10410291;28;19987;-62
2022/11/29 20:00:22;;;;;;;;;;;;;;;;;;10416971;28;19925;-62
2022/11/29 20:05:26;;;;;;;;;;;;;;;;;;10416170;28;20457;-62
2022/11/29 20:10:28;;;;;;;;;;;;;;;;;;10416835;28;19925;-62
2022/11/29 20:15:30;;;;;;;;;;;;;;;;;;10417502;28;20339;-62
2022/11/29 20:20:32;;;;;;;;;;;;;;;;;;10467640;22;20003;-69
2022/11/29 20:25:35;;;;;;;;;;;;;;;;;;10462886;28;20302;-67
2022/11/29 20:30:37;;;;;;;;;;;;;;;;;;10458478;28;19990;-67
2022/11/29 20:35:39;;;;;;;;;;;;;;;;;;10458960;28;19929;-67
2022/11/29 20:40:41;;;;;;;;;;;;;;;;;;10483657;28;20353;-67
2022/11/29 20:45:43;;;;;;;;;;;;;;;;;;10499898;28;19978;-67
2022/11/29 20:50:45;;;;;;;;;;;;;;;;;;10499002;28;19946;-67
2022/11/29 20:55:47;;;;;;;;;;;;;;;;;;10497676;28;19929;-67
2022/11/29 21:00:49;;;;;;;;;;;;;;;;;;10498083;28;19924;-67
2022/11/29 21:05:52;;;;;;;;;;;;;;;;;;10497683;28;19974;-68
2022/11/29 21:10:54;;;;;;;;;;;;;;;;;;10498633;28;19924;-67
2022/11/29 21:15:56;;;;;;;;;;;;;;;;;;10496730;28;19947;-68
2022/11/29 21:20:58;;;;;;;;;;;;;;;;;;10496872;28;20347;-67
2022/11/29 21:26:00;;;;;;;;;;;;;;;;;;10498787;28;19928;-67
2022/11/29 21:31:02;;;;;;;;;;;;;;;;;;10484589;28;19975;-67
2022/11/29 21:36:05;;;;;;;;;;;;;;;;;;10456444;28;19977;-67
2022/11/29 21:41:07;;;;;;;;;;;;;;;;;;10456392;28;20334;-67
2022/11/29 21:46:09;;;;;;;;;;;;;;;;;;10458081;28;19924;-67
2022/11/29 21:51:11;;;;;;;;;;;;;;;;;;10488328;28;19974;-67
2022/11/29 21:56:13;;;;;;;;;;;;;;;;;;10457851;28;19970;-67
2022/11/29 22:01:15;;;;;;;;;;;;;;;;;;10455938;28;20364;-67
2022/11/29 22:06:19;;;;;;;;;;;;;;;;;;10468052;28;19925;-67
2022/11/29 22:11:30;;;;;;;;;;;;;;;;;;10462034;28;20436;-67
2022/11/29 22:16:32;;;;;;;;;;;;;;;;;;10476791;28;19982;-67
2022/11/29 22:21:34;;;;;;;;;;;;;;;;;;10504803;28;19932;-67
2022/11/29 22:26:36;;;;;;;;;;;;;;;;;;10492325;28;19924;-67
2022/11/29 22:31:38;;;;;;;;;;;;;;;;;;10504710;28;19939;-67
2022/11/29 22:36:40;;;;;;;;;;;;;;;;;;10489360;28;20372;-67
2022/11/29 22:41:42;;;;;;;;;;;;;;;;;;10463256;28;19929;-67
2022/11/29 22:46:46;;;;;;;;;;;;;;;;;;10477165;28;19979;-67
2022/11/29 22:51:49;;;;;;;;;;;;;;;;;;10504302;28;19986;-67
2022/11/29 22:56:51;;;;;;;;;;;;;;;;;;10487390;28;19935;-67
2022/11/29 23:01:53;;;;;;;;;;;;;;;;;;10503318;28;19978;-67
2022/11/29 23:06:55;;;;;;;;;;;;;;;;;;10488426;28;19932;-67
2022/11/29 23:11:57;;;;;;;;;;;;;;;;;;10461548;28;19931;-67
2022/11/29 23:16:59;;;;;;;;;;;;;;;;;;10477015;28;20434;-67
2022/11/29 23:22:01;;;;;;;;;;;;;;;;;;10459951;28;19925;-67
2022/11/29 23:27:04;;;;;;;;;;;;;;;;;;10478265;28;19947;-67
2022/11/29 23:32:06;;;;;;;;;;;;;;;;;;10502192;28;19925;-67
2022/11/29 23:37:08;;;;;;;;;;;;;;;;;;10483339;28;19925;-67
2022/11/29 23:42:10;;;;;;;;;;;;;;;;;;10502311;28;19932;-67
2022/11/29 23:47:12;;;;;;;;;;;;;;;;;;10483525;28;20441;-67
2022/11/29 23:52:14;;;;;;;;;;;;;;;;;;10460512;28;19931;-67
2022/11/29 23:57:16;;;;;;;;;;;;;;;;;;10480853;28;20461;-67
